createdAt,value
2019-05-06T00:02:29.470Z,7.33
2019-05-06T00:05:04.007Z,6.93
2019-05-06T00:07:36.423Z,5.77
2019-05-06T00:10:24.620Z,6.80
2019-05-06T00:12:57.953Z,6.40
2019-05-06T00:15:31.030Z,7.07
2019-05-06T00:18:04.471Z,8.67
2019-05-06T00:20:37.632Z,5.77
2019-05-06T00:23:14.055Z,6.87
2019-05-06T00:26:05.925Z,9.03
2019-05-06T00:28:55.091Z,8.17
2019-05-06T00:31:27.758Z,7.70
2019-05-06T00:34:00.440Z,7.07
2019-05-06T00:36:34.462Z,6.50
2019-05-06T00:39:11.135Z,6.97
2019-05-06T00:41:44.107Z,8.87
2019-05-06T00:44:16.790Z,6.70
2019-05-06T00:46:49.416Z,6.87
2019-05-06T00:49:23.792Z,7.87
2019-05-06T00:51:56.370Z,7.40
2019-05-06T00:54:30.575Z,6.77
2019-05-06T00:57:03.626Z,7.07
2019-05-06T00:59:36.547Z,9.03
2019-05-06T01:02:09.227Z,8.60
2019-05-06T01:04:41.935Z,9.10
2019-05-06T01:07:17.452Z,11.87
2019-05-06T01:09:50.345Z,8.40
2019-05-06T01:12:24.133Z,8.63
2019-05-06T01:14:59.687Z,8.87
2019-05-06T01:17:33.882Z,10.07
2019-05-06T01:20:10.896Z,10.90
2019-05-06T01:22:43.753Z,12.17
2019-05-06T01:25:17.368Z,13.17
2019-05-06T01:27:50.368Z,9.87
2019-05-06T01:30:24.310Z,11.40
2019-05-06T01:32:57.963Z,10.90
2019-05-06T01:35:30.666Z,11.07
2019-05-06T01:38:24.316Z,13.77
2019-05-06T01:41:14.411Z,14.47
2019-05-06T01:43:47.361Z,11.70
2019-05-06T01:46:20.945Z,13.77
2019-05-06T01:48:53.736Z,11.83
2019-05-06T01:51:26.349Z,12.83
2019-05-06T01:53:59.024Z,10.37
2019-05-06T01:56:33.484Z,10.97
2019-05-06T01:59:06.237Z,12.03
2019-05-06T02:01:39.008Z,11.03
2019-05-06T02:04:13.670Z,9.37
2019-05-06T02:06:46.032Z,11.17
2019-05-06T02:09:19.400Z,9.60
2019-05-06T02:11:53.645Z,10.80
2019-05-06T02:14:26.603Z,12.30
2019-05-06T02:17:00.919Z,9.67
2019-05-06T02:19:34.716Z,13.23
2019-05-06T02:22:18.166Z,12.17
2019-05-06T02:24:50.545Z,15.00
2019-05-06T02:27:24.732Z,19.87
2019-05-06T02:29:59.264Z,15.93
2019-05-06T02:32:45.234Z,15.93
2019-05-06T02:35:16.617Z,17.67
2019-05-06T02:37:49.303Z,16.00
2019-05-06T02:40:28.446Z,14.13
2019-05-06T02:43:03.236Z,14.70
2019-05-06T02:45:35.426Z,11.67
2019-05-06T02:48:09.740Z,10.63
2019-05-06T02:50:44.665Z,14.07
2019-05-06T02:53:23.649Z,15.73
2019-05-06T02:55:56.273Z,14.47
2019-05-06T02:58:29.413Z,14.83
2019-05-06T03:01:03.579Z,16.53
2019-05-06T03:03:36.352Z,14.77
2019-05-06T03:06:17.106Z,14.37
2019-05-06T03:08:46.512Z,13.80
2019-05-06T03:11:23.984Z,14.37
2019-05-06T03:13:57.682Z,13.97
2019-05-06T03:16:37.771Z,17.80
2019-05-06T03:19:13.381Z,11.43
2019-05-06T03:21:57.727Z,11.37
2019-05-06T03:24:33.736Z,12.07
2019-05-06T03:27:06.963Z,9.57
2019-05-06T03:29:39.554Z,9.13
2019-05-06T03:32:24.729Z,8.13
2019-05-06T03:35:15.745Z,7.87
2019-05-06T03:37:29.358Z,9.13
2019-05-06T03:40:05.301Z,10.17
2019-05-06T03:42:42.644Z,7.00
2019-05-06T03:45:26.738Z,8.40
2019-05-06T03:48:05.384Z,12.40
2019-05-06T03:50:36.360Z,11.10
2019-05-06T03:53:10.078Z,10.10
2019-05-06T03:55:47.874Z,11.13
2019-05-06T03:58:43.471Z,10.73
2019-05-06T04:01:18.268Z,10.20
2019-05-06T04:03:57.244Z,12.87
2019-05-06T04:06:29.558Z,11.67
2019-05-06T04:09:13.053Z,11.23
2019-05-06T04:11:49.642Z,9.73
2019-05-06T04:14:24.474Z,12.73
2019-05-06T04:17:16.098Z,14.03
2019-05-06T04:19:53.586Z,11.60
2019-05-06T04:22:33.173Z,10.27
2019-05-06T04:25:10.480Z,8.33
2019-05-06T04:27:54.061Z,6.30
2019-05-06T04:30:27.849Z,7.67
2019-05-06T04:33:03.314Z,11.03
2019-05-06T04:35:35.473Z,11.07
2019-05-06T04:38:08.149Z,13.77
2019-05-06T04:40:43.672Z,12.33
2019-05-06T04:43:16.321Z,11.80
2019-05-06T04:45:53.722Z,13.43
2019-05-06T04:48:25.316Z,10.67
2019-05-06T04:50:57.996Z,8.47
2019-05-06T04:53:33.944Z,9.53
2019-05-06T04:56:05.909Z,9.40
2019-05-06T04:58:38.595Z,9.70
2019-05-06T05:01:14.892Z,8.00
2019-05-06T05:03:45.652Z,10.40
2019-05-06T05:06:23.097Z,7.83
2019-05-06T05:09:02.897Z,10.23
2019-05-06T05:11:49.525Z,9.80
2019-05-06T05:14:25.940Z,10.47
2019-05-06T05:17:02.240Z,10.57
2019-05-06T05:19:35.456Z,10.27
2019-05-06T05:22:08.136Z,8.77
2019-05-06T05:24:42.537Z,9.53
2019-05-06T05:27:15.849Z,14.87
2019-05-06T05:29:48.525Z,7.97
2019-05-06T05:32:22.466Z,9.27
2019-05-06T05:34:55.421Z,9.13
2019-05-06T05:37:28.045Z,8.03
2019-05-06T05:40:02.835Z,8.93
2019-05-06T05:42:36.628Z,7.13
2019-05-06T05:45:10.125Z,7.50
2019-05-06T05:47:42.910Z,7.23
2019-05-06T05:50:22.780Z,5.37
2019-05-06T05:52:55.839Z,4.83
2019-05-06T05:55:28.531Z,3.63
2019-05-06T05:58:03.182Z,4.00
2019-05-06T06:00:37.265Z,5.10
2019-05-06T06:03:09.945Z,4.33
2019-05-06T06:05:47.046Z,4.40
2019-05-06T06:08:25.070Z,3.17
2019-05-06T06:11:05.124Z,4.97
2019-05-06T06:13:38.721Z,6.77
2019-05-06T06:16:16.792Z,6.63
2019-05-06T06:19:06.666Z,7.57
2019-05-06T06:21:42.640Z,9.70
2019-05-06T06:24:19.404Z,9.37
2019-05-06T06:26:52.168Z,16.40
2019-05-06T06:29:25.272Z,17.00
2019-05-06T06:32:05.531Z,11.83
2019-05-06T06:34:39.845Z,14.23
2019-05-06T06:37:33.896Z,14.33
2019-05-06T06:40:13.117Z,16.93
2019-05-06T06:42:48.295Z,12.50
2019-05-06T06:45:23.099Z,10.70
2019-05-06T06:47:56.947Z,7.97
2019-05-06T06:50:32.838Z,10.13
2019-05-06T06:53:05.258Z,8.23
2019-05-06T06:55:38.959Z,8.60
2019-05-06T06:58:20.241Z,8.77
2019-05-06T07:00:57.321Z,7.90
2019-05-06T07:03:32.717Z,8.43
2019-05-06T07:06:13.546Z,9.00
2019-05-06T07:08:46.217Z,9.30
2019-05-06T07:11:18.847Z,9.30
2019-05-06T07:13:56.698Z,11.13
2019-05-06T07:16:29.376Z,8.87
2019-05-06T07:19:03.192Z,7.93
2019-05-06T07:21:44.827Z,10.17
2019-05-06T07:24:17.497Z,7.73
2019-05-06T07:26:52.423Z,8.80
2019-05-06T07:29:26.780Z,8.67
2019-05-06T07:31:59.884Z,9.57
2019-05-06T07:34:33.687Z,7.80
2019-05-06T07:37:06.580Z,7.83
2019-05-06T07:39:39.864Z,9.27
2019-05-06T07:42:17.082Z,8.33
2019-05-06T07:44:54.238Z,8.83
2019-05-06T07:47:28.557Z,9.60
2019-05-06T07:50:02.401Z,10.43
2019-05-06T07:52:35.348Z,13.03
2019-05-06T07:55:08.088Z,9.00
2019-05-06T07:57:42.379Z,8.20
2019-05-06T08:00:16.461Z,10.20
2019-05-06T08:02:49.137Z,8.03
2019-05-06T08:05:22.472Z,7.63
2019-05-06T08:07:56.491Z,16.03
2019-05-06T08:10:29.118Z,7.47
2019-05-06T08:13:02.748Z,7.50
2019-05-06T08:15:35.915Z,8.37
2019-05-06T08:18:08.590Z,6.67
2019-05-06T08:20:42.725Z,7.57
2019-05-06T08:23:17.332Z,9.33
2019-05-06T08:25:54.383Z,4.87
2019-05-06T08:28:37.459Z,6.37
2019-05-06T08:31:02.389Z,7.47
2019-05-06T08:33:36.025Z,6.23
2019-05-06T08:36:12.456Z,5.27
2019-05-06T08:39:02.803Z,6.13
2019-05-06T08:41:36.955Z,6.13
2019-05-06T08:44:09.787Z,7.23
2019-05-06T08:46:43.352Z,7.03
2019-05-06T08:49:17.709Z,6.83
2019-05-06T08:51:53.060Z,8.43
2019-05-06T08:54:32.485Z,6.97
2019-05-06T08:57:05.190Z,5.10
2019-05-06T08:59:37.844Z,5.17
2019-05-06T09:02:10.525Z,4.33
2019-05-06T09:04:43.208Z,3.73
2019-05-06T09:07:15.875Z,7.87
2019-05-06T09:09:48.765Z,6.97
2019-05-06T09:12:22.325Z,6.13
2019-05-06T09:14:56.061Z,6.20
2019-05-06T09:17:30.124Z,6.87
2019-05-06T09:20:02.821Z,5.37
2019-05-06T09:22:36.356Z,4.27
2019-05-06T09:25:14.300Z,5.27
2019-05-06T09:27:46.650Z,4.97
2019-05-06T09:30:30.311Z,6.30
2019-05-06T09:33:04.548Z,6.33
2019-05-06T09:35:38.345Z,5.90
2019-05-06T09:38:12.734Z,4.50
2019-05-06T09:40:45.490Z,4.60
2019-05-06T09:43:18.169Z,5.67
2019-05-06T09:45:53.009Z,6.03
2019-05-06T09:48:27.517Z,4.87
2019-05-06T09:51:02.762Z,5.53
2019-05-06T09:53:55.946Z,5.27
2019-05-06T09:56:33.367Z,7.43
2019-05-06T09:59:05.164Z,7.23
2019-05-06T10:01:38.058Z,6.20
2019-05-06T10:04:12.951Z,5.93
2019-05-06T10:06:56.194Z,7.77
2019-05-06T10:09:19.367Z,6.90
2019-05-06T10:11:53.275Z,5.40
2019-05-06T10:14:25.952Z,6.30
2019-05-06T10:16:58.941Z,7.17
2019-05-06T10:19:32.084Z,5.17
2019-05-06T10:22:04.811Z,6.57
2019-05-06T10:24:37.489Z,6.10
2019-05-06T10:27:12.118Z,9.47
2019-05-06T10:29:47.144Z,6.67
2019-05-06T10:32:22.496Z,5.93
2019-05-06T10:34:55.378Z,8.87
2019-05-06T10:37:36.139Z,8.50
2019-05-06T10:40:18.851Z,7.93
2019-05-06T10:43:07.915Z,9.50
2019-05-06T10:45:42.549Z,10.00
2019-05-06T10:48:14.915Z,8.27
2019-05-06T10:50:51.994Z,6.47
2019-05-06T10:53:25.288Z,6.50
2019-05-06T10:55:59.513Z,5.40
2019-05-06T10:58:32.729Z,8.23
2019-05-06T11:01:12.478Z,6.57
2019-05-06T11:03:45.017Z,5.93
2019-05-06T11:06:18.722Z,6.57
2019-05-06T11:08:52.564Z,6.83
2019-05-06T11:11:37.730Z,7.00
2019-05-06T11:14:03.128Z,6.20
2019-05-06T11:16:36.809Z,9.40
2019-05-06T11:19:09.489Z,10.27
2019-05-06T11:21:45.012Z,9.97
2019-05-06T11:24:16.480Z,8.57
2019-05-06T11:26:49.213Z,9.57
2019-05-06T11:29:23.489Z,8.73
2019-05-06T11:32:06.606Z,7.93
2019-05-06T11:34:47.169Z,8.67
2019-05-06T11:37:23.167Z,9.53
2019-05-06T11:39:56.210Z,7.10
2019-05-06T11:42:33.491Z,9.53
2019-05-06T11:45:03.387Z,8.10
2019-05-06T11:47:36.189Z,8.90
2019-05-06T11:50:12.953Z,8.97
2019-05-06T11:52:46.878Z,6.63
2019-05-06T11:55:28.936Z,8.23
2019-05-06T11:57:53.877Z,8.00
2019-05-06T12:00:28.197Z,8.47
2019-05-06T12:03:02.391Z,8.03
2019-05-06T12:05:35.287Z,7.53
2019-05-06T12:08:08.457Z,6.00
2019-05-06T12:10:42.485Z,9.13
2019-05-06T12:13:15.475Z,7.30
2019-05-06T12:15:48.315Z,6.03
2019-05-06T12:18:23.091Z,9.80
2019-05-06T12:21:07.947Z,7.23
2019-05-06T12:23:34.919Z,7.53
2019-05-06T12:26:05.563Z,11.50
2019-05-06T12:28:38.316Z,6.47
2019-05-06T12:31:12.632Z,7.53
2019-05-06T12:33:49.918Z,6.57
2019-05-06T12:36:24.027Z,8.10
2019-05-06T12:39:18.666Z,6.10
2019-05-06T12:41:53.496Z,6.27
2019-05-06T12:44:26.961Z,8.60
2019-05-06T12:47:06.901Z,6.47
2019-05-06T12:49:42.172Z,4.67
2019-05-06T12:52:13.997Z,5.47
2019-05-06T12:54:46.676Z,4.60
2019-05-06T12:57:20.068Z,7.37
2019-05-06T12:59:53.143Z,6.83
2019-05-06T13:02:26.143Z,7.37
2019-05-06T13:05:00.844Z,5.00
2019-05-06T13:07:34.679Z,6.87
2019-05-06T13:10:09.912Z,5.80
2019-05-06T13:12:44.390Z,6.10
2019-05-06T13:15:17.119Z,4.33
2019-05-06T13:17:49.799Z,6.93
2019-05-06T13:20:23.357Z,4.17
2019-05-06T13:23:07.374Z,6.67
2019-05-06T13:25:34.900Z,6.37
2019-05-06T13:28:09.222Z,5.83
2019-05-06T13:30:43.394Z,3.67
2019-05-06T13:33:25.250Z,4.43
2019-05-06T13:35:57.912Z,5.10
2019-05-06T13:38:32.070Z,4.30
2019-05-06T13:41:04.903Z,5.10
2019-05-06T13:43:45.109Z,4.60
2019-05-06T13:46:25.316Z,4.40
2019-05-06T13:48:57.642Z,4.67
2019-05-06T13:51:32.377Z,4.57
2019-05-06T13:54:04.684Z,5.63
2019-05-06T13:56:38.489Z,4.53
2019-05-06T13:59:12.830Z,3.80
2019-05-06T14:01:49.530Z,3.27
2019-05-06T14:04:24.076Z,3.80
2019-05-06T14:06:57.035Z,6.20
2019-05-06T14:09:37.297Z,4.10
2019-05-06T14:12:04.089Z,5.30
2019-05-06T14:14:36.713Z,5.03
2019-05-06T14:17:09.341Z,3.77
2019-05-06T14:19:42.878Z,4.20
2019-05-06T14:22:16.027Z,5.80
2019-05-06T14:24:50.292Z,4.60
2019-05-06T14:27:22.924Z,4.07
2019-05-06T14:30:04.144Z,3.80
2019-05-06T14:32:34.841Z,6.17
2019-05-06T14:35:08.947Z,3.23
2019-05-06T14:37:42.225Z,4.87
2019-05-06T14:40:17.376Z,4.13
2019-05-06T14:42:50.264Z,3.53
2019-05-06T14:45:22.945Z,4.17
2019-05-06T14:47:56.230Z,5.17
2019-05-06T14:50:32.418Z,3.47
2019-05-06T14:53:03.234Z,5.10
2019-05-06T14:55:37.459Z,6.50
2019-05-06T14:58:12.064Z,4.77
2019-05-06T15:00:44.443Z,5.83
2019-05-06T15:03:17.071Z,4.27
2019-05-06T15:05:49.801Z,4.37
2019-05-06T15:08:22.660Z,5.67
2019-05-06T15:10:55.517Z,3.83
2019-05-06T15:13:28.861Z,5.33
2019-05-06T15:16:03.504Z,4.33
2019-05-06T15:18:36.066Z,4.33
2019-05-06T15:21:32.314Z,6.13
2019-05-06T15:23:43.577Z,4.90
2019-05-06T15:26:16.260Z,3.20
2019-05-06T15:28:48.927Z,4.43
2019-05-06T15:31:29.493Z,3.77
2019-05-06T15:34:06.617Z,3.53
2019-05-06T15:36:40.892Z,6.27
2019-05-06T15:39:13.573Z,4.93
2019-05-06T15:41:46.460Z,4.70
2019-05-06T15:44:19.136Z,5.43
2019-05-06T15:46:52.761Z,3.93
2019-05-06T15:49:25.831Z,4.33
2019-05-06T15:51:58.506Z,6.00
2019-05-06T15:54:32.293Z,3.17
2019-05-06T15:57:05.099Z,4.77
2019-05-06T15:59:40.814Z,5.10
2019-05-06T16:02:12.191Z,5.10
2019-05-06T16:04:44.815Z,5.53
2019-05-06T16:07:17.455Z,5.57
2019-05-06T16:09:54.914Z,3.87
2019-05-06T16:12:24.594Z,3.07
2019-05-06T16:14:57.328Z,4.07
2019-05-06T16:17:32.741Z,3.93
2019-05-06T16:20:06.626Z,2.63
2019-05-06T16:22:39.256Z,3.73
2019-05-06T16:25:17.259Z,4.67
2019-05-06T16:27:54.537Z,4.50
2019-05-06T16:30:28.291Z,4.53
2019-05-06T16:33:04.118Z,4.30
2019-05-06T16:35:35.964Z,5.83
2019-05-06T16:38:08.588Z,4.47
2019-05-06T16:40:46.147Z,3.63
2019-05-06T16:43:23.135Z,3.87
2019-05-06T16:46:04.743Z,5.43
2019-05-06T16:48:38.585Z,2.60
2019-05-06T16:51:12.562Z,5.27
2019-05-06T16:53:46.526Z,4.37
2019-05-06T16:56:22.146Z,6.37
2019-05-06T16:59:07.206Z,5.53
2019-05-06T17:01:43.225Z,2.87
2019-05-06T17:04:20.189Z,4.07
2019-05-06T17:06:53.420Z,3.73
2019-05-06T17:09:27.714Z,5.77
2019-05-06T17:12:04.434Z,4.07
2019-05-06T17:14:35.304Z,7.40
2019-05-06T17:17:08.394Z,6.03
2019-05-06T17:19:42.207Z,3.47
2019-05-06T17:22:15.027Z,4.77
2019-05-06T17:24:48.752Z,7.40
2019-05-06T17:27:23.622Z,6.30
2019-05-06T17:29:59.878Z,5.50
2019-05-06T17:32:47.199Z,5.40
2019-05-06T17:35:19.997Z,8.57
2019-05-06T17:38:03.105Z,11.33
2019-05-06T17:40:35.884Z,8.03
2019-05-06T17:43:08.975Z,10.40
2019-05-06T17:46:01.056Z,8.63
2019-05-06T17:48:23.701Z,9.57
2019-05-06T17:51:13.679Z,10.50
2019-05-06T17:53:49.025Z,8.07
2019-05-06T17:56:22.453Z,5.03
2019-05-06T17:58:55.110Z,3.87
2019-05-06T18:01:45.604Z,9.07
2019-05-06T18:04:18.178Z,9.33
2019-05-06T18:06:52.629Z,9.27
2019-05-06T18:09:25.227Z,9.57
2019-05-06T18:12:02.897Z,8.20
2019-05-06T18:14:35.808Z,11.47
2019-05-06T18:17:08.489Z,13.07
2019-05-06T18:19:41.169Z,18.53
2019-05-06T18:22:13.873Z,19.80
2019-05-06T18:24:46.521Z,17.70
2019-05-06T18:27:22.483Z,16.13
2019-05-06T18:29:54.850Z,18.23
2019-05-06T18:32:29.163Z,33.53
2019-05-06T18:35:02.715Z,37.87
2019-05-06T18:37:36.369Z,38.90
2019-05-06T18:40:09.052Z,32.13
2019-05-06T18:42:43.029Z,32.93
2019-05-06T18:45:15.937Z,26.73
2019-05-06T18:47:48.625Z,24.17
2019-05-06T18:50:22.043Z,23.07
2019-05-06T18:52:57.729Z,30.43
2019-05-06T18:55:33.166Z,37.63
2019-05-06T18:58:06.407Z,29.97
2019-05-06T19:00:39.388Z,24.80
2019-05-06T19:03:12.168Z,28.30
2019-05-06T19:05:45.774Z,44.37
2019-05-06T19:08:26.949Z,31.27
2019-05-06T19:10:59.630Z,33.43
2019-05-06T19:13:33.493Z,22.03
2019-05-06T19:16:06.628Z,23.90
2019-05-06T19:18:39.304Z,27.47
2019-05-06T19:21:14.069Z,18.53
2019-05-06T19:23:48.707Z,21.43
2019-05-06T19:26:23.479Z,17.50
2019-05-06T19:29:04.358Z,16.97
2019-05-06T19:31:34.945Z,15.07
2019-05-06T19:34:08.694Z,16.43
2019-05-06T19:36:42.239Z,16.97
2019-05-06T19:39:17.556Z,20.30
2019-05-06T19:41:52.407Z,20.03
2019-05-06T19:44:25.457Z,17.77
2019-05-06T19:47:02.561Z,24.17
2019-05-06T19:49:44.947Z,20.27
2019-05-06T19:52:17.616Z,19.07
2019-05-06T19:54:52.116Z,22.40
2019-05-06T19:57:33.893Z,32.53
2019-05-06T20:00:14.631Z,27.97
2019-05-06T20:02:52.312Z,21.80
2019-05-06T20:05:36.076Z,22.37
2019-05-06T20:08:26.634Z,23.23
2019-05-06T20:11:19.177Z,23.57
2019-05-06T20:14:01.969Z,32.10
2019-05-06T20:16:35.932Z,38.47
2019-05-06T20:19:08.630Z,68.30
2019-05-06T20:21:42.393Z,77.43
2019-05-06T20:24:16.803Z,71.90
2019-05-06T20:26:50.035Z,50.03
2019-05-06T20:29:25.698Z,46.83
2019-05-06T20:31:58.345Z,37.80
2019-05-06T20:34:33.344Z,29.57
2019-05-06T20:37:06.549Z,26.30
2019-05-06T20:39:39.230Z,23.30
2019-05-06T20:42:12.857Z,21.10
2019-05-06T20:44:45.606Z,21.17
2019-05-06T20:47:19.825Z,16.23
2019-05-06T20:49:52.660Z,19.80
2019-05-06T20:52:26.522Z,19.07
2019-05-06T20:54:59.196Z,20.40
2019-05-06T20:57:33.299Z,19.13
2019-05-06T21:00:08.134Z,15.03
2019-05-06T21:02:42.704Z,15.30
2019-05-06T21:05:17.334Z,13.93
2019-05-06T21:07:49.958Z,12.27
2019-05-06T21:10:22.593Z,15.57
2019-05-06T21:12:55.215Z,13.87
2019-05-06T21:15:27.895Z,15.63
2019-05-06T21:18:03.783Z,18.00
2019-05-06T21:20:38.060Z,17.00
2019-05-06T21:23:10.692Z,14.57
2019-05-06T21:25:43.423Z,17.17
2019-05-06T21:28:16.103Z,16.40
2019-05-06T21:30:48.783Z,17.17
2019-05-06T21:33:22.143Z,20.30
2019-05-06T21:35:54.961Z,20.83
2019-05-06T21:38:27.647Z,21.03
2019-05-06T21:41:02.158Z,19.83
2019-05-06T21:43:46.001Z,22.30
2019-05-06T21:46:09.366Z,20.93
2019-05-06T21:48:43.780Z,24.60
2019-05-06T21:51:16.769Z,27.07
2019-05-06T21:53:49.447Z,27.73
2019-05-06T21:56:22.613Z,24.83
2019-05-06T21:58:55.523Z,20.07
2019-05-06T22:01:29.122Z,18.23
2019-05-06T22:04:03.317Z,19.73
2019-05-06T22:06:36.017Z,19.00
2019-05-06T22:09:08.696Z,20.80
2019-05-06T22:11:42.399Z,17.37
2019-05-06T22:14:15.286Z,17.90
2019-05-06T22:16:47.966Z,18.00
2019-05-06T22:19:21.457Z,16.97
2019-05-06T22:22:03.362Z,15.67
2019-05-06T22:24:57.342Z,18.47
2019-05-06T22:27:27.911Z,16.63
2019-05-06T22:30:03.073Z,20.50
2019-05-06T22:32:36.910Z,20.57
2019-05-06T22:35:11.928Z,21.20
2019-05-06T22:37:45.071Z,21.10
2019-05-06T22:40:18.670Z,21.73
2019-05-06T22:42:52.824Z,18.00
2019-05-06T22:45:25.528Z,15.47
2019-05-06T22:47:58.409Z,18.13
2019-05-06T22:50:32.894Z,18.50
2019-05-06T22:53:05.407Z,21.57
2019-05-06T22:55:38.749Z,16.70
2019-05-06T22:58:11.949Z,16.47
2019-05-06T23:00:53.701Z,15.17
2019-05-06T23:03:28.309Z,14.43
2019-05-06T23:06:02.537Z,15.93
2019-05-06T23:08:35.617Z,15.00
2019-05-06T23:11:08.290Z,17.50
2019-05-06T23:13:41.917Z,14.57
2019-05-06T23:16:15.490Z,18.07
2019-05-06T23:18:48.882Z,20.60
2019-05-06T23:21:23.210Z,13.07
2019-05-06T23:23:55.988Z,16.30
2019-05-06T23:26:28.676Z,16.80
2019-05-06T23:29:02.459Z,13.50
2019-05-06T23:31:36.787Z,14.77
2019-05-06T23:34:09.468Z,14.97
2019-05-06T23:37:04.884Z,16.40
2019-05-06T23:40:33.466Z,14.97
2019-05-06T23:44:00.322Z,12.50
2019-05-06T23:47:27.161Z,16.00
2019-05-06T23:50:54.125Z,12.70
2019-05-06T23:54:22.041Z,12.97
2019-05-06T23:56:52.930Z,11.60
2019-05-06T23:59:26.887Z,16.50
